Terminal Aerodrome Forecast
Issued by NWS Louisville, KY

Home | Current Version | Previous Version | Text Only | Print | Product List | Glossary On
Versions: 1 2 3 4 5 6 7 8 9 10 11 12 13 14 15 16 17
000
FTUS43 KLMK 240500
TAFLEX
TAF
KLEX 240520Z 2406/2506 19018G27KT P6SM -SHRA BKN015
      TEMPO 2406/2409 3SM -SHRA BR
     FM241200 20021G35KT P6SM VCSH BKN010
     FM241500 21020G33KT P6SM -SHRA BKN015
     FM241900 23020G29KT P6SM VCSH BKN015
     FM250000 24012KT P6SM BKN025=

USA.gov is the U.S. government's official web portal to all federal, state and local government web resources and services.